Flight Track Log - Related Links

Times and Time Zones

All times are in EDT time to prevent confusion due to time zone crossing. See the ASQ5958 flight status page for this flight to view local times or setup timezone preferences in your user account.

Time Position Orientation Groundspeed Altitude Reporting Facility
EDT Latitude Longitude Course Direction KTS MPH feet Rate Location/Type
Wed 11:00:50 AM 42.2008 -83.3889 225° Southwest 160 184 1,300  Level Cleveland Center
Wed 11:02:16 AM 42.1447 -83.4650 225° Southwest 230 265 3,600 1,804 Climbing Cleveland Center
Wed 11:03:23 AM 42.0908 -83.5353 224° Southwest 248 285 5,900 1,969 Climbing Cleveland Center
Wed 11:04:24 AM 42.0719 -83.6156 252° West 259 298 7,800 1,805 Climbing Cleveland Center
Wed 11:05:26 AM 42.1417 -83.6608 334° Northwest 277 319 9,600 1,389 Climbing Cleveland Center
Wed 11:05:59 AM 42.1706 -83.6792 335° Northwest 295 339 10,000 581 Climbing Cleveland Center
Wed 11:06:59 AM 42.2756 -83.7264 342° North 341 392 10,500 1,050 Climbing Cleveland Center
Wed 11:07:59 AM 42.3622 -83.6772 23° Northeast 330 380 12,100 1,250 Climbing Cleveland Center
Wed 11:08:59 AM 42.4406 -83.6333 22° Northeast 347 399 13,000 1,050 Climbing Cleveland Center
Wed 11:09:59 AM 42.5336 -83.5814 22° Northeast 347 399 14,200 1,250 Climbing Cleveland Center
Wed 11:10:59 AM 42.6247 -83.5292 23° Northeast 352 405 15,500 1,300 Climbing Cleveland Center
Wed 11:11:59 AM 42.7178 -83.4769 22° Northeast 352 405 16,800 1,150 Climbing Cleveland Center
Wed 11:12:59 AM 42.8086 -83.4247 23° Northeast 352 405 17,800 1,000 Climbing Cleveland Center
Wed 11:13:59 AM 42.9036 -83.3750 21° North 358 412 18,800 1,000 Climbing Cleveland Center
Wed 11:14:59 AM 43.0058 -83.3683 North 358 412 19,800 1,000 Climbing Cleveland Center
Wed 11:15:59 AM 43.1075 -83.3900 351° North 358 412 20,800 950 Climbing Cleveland Center
Wed 11:16:59 AM 43.1997 -83.4511 334° Northwest 358 412 21,700 850 Climbing Cleveland Center
Wed 11:17:59 AM 43.2964 -83.5128 335° Northwest 366 421 22,500 800 Climbing Cleveland Center
Wed 11:18:59 AM 43.3886 -83.5742 334° Northwest 371 427 23,300 757 Climbing Cleveland Center
Wed 11:19:50 AM 43.4639 -83.6264 333° Northwest 374 430 23,900 372 Climbing Minneapolis Center
Wed 11:20:52 AM 43.5222 -83.7453 304° West 384 442 24,000 48 Climbing Minneapolis Center
Wed 11:21:54 AM 43.5583 -83.8892 289° West 396 456 24,000  Level Minneapolis Center
Wed 11:22:56 AM 43.5975 -84.0378 290° West 408 470 24,000  Level Minneapolis Center
Wed 11:23:58 AM 43.6347 -84.1906 289° West 418 481 24,000  Level Minneapolis Center
Wed 11:25:00 AM 43.6825 -84.3756 290° West 425 489 24,000  Level Minneapolis Center
Wed 11:26:03 AM 43.7206 -84.5325 289° West 431 496 24,000  Level Minneapolis Center
Wed 11:27:04 AM 43.7519 -84.6572 289° West 431 496 24,000  Level Minneapolis Center
Wed 11:28:07 AM 43.7978 -84.8478 288° West 436 502 24,000  Level Minneapolis Center
Wed 11:29:09 AM 43.8369 -85.0061 289° West 437 503 24,000  Level Minneapolis Center
Wed 11:30:11 AM 43.8836 -85.1986 289° West 439 505 24,000  Level Minneapolis Center
Wed 11:31:13 AM 43.9231 -85.3597 289° West 442 509 24,000  Level Minneapolis Center
Wed 11:32:15 AM 43.9608 -85.5203 288° West 443 510 24,000  Level Minneapolis Center
Wed 11:33:17 AM 43.9986 -85.6794 288° West 441 507 24,000  Level Minneapolis Center
Wed 11:34:19 AM 44.0356 -85.8397 288° West 436 502 24,000  Level Minneapolis Center
Wed 11:35:21 AM 44.0797 -86.0292 288° West 438 504 24,000  Level Minneapolis Center
Wed 11:36:23 AM 44.1183 -86.1958 288° West 440 506 24,000  Level Minneapolis Center
Wed 11:37:25 AM 44.1544 -86.3578 287° West 439 505 24,000  Level Minneapolis Center
Wed 11:38:28 AM 44.1919 -86.5208 288° West 439 505 24,000  Level Minneapolis Center
Wed 11:39:30 AM 44.2292 -86.6853 288° West 444 511 24,000  Level Minneapolis Center
Wed 11:40:32 AM 44.2658 -86.8483 287° West 441 507 24,000 -774 Level Minneapolis Center
Wed 11:41:34 AM 44.3031 -87.0136 288° West 445 512 22,400 -968 Descending Minneapolis Center
Wed 11:42:36 AM 44.3458 -87.2117 287° West 443 510 22,000 -176 Descending Minneapolis Center
Wed 11:43:50 AM 44.3886 -87.4061 287° West 444 511 22,000  Level Minneapolis Center
Wed 11:44:52 AM 44.4000 -87.5736 275° West 444 511 22,000  Level Minneapolis Center
Wed 11:45:55 AM 44.3144 -87.6842 223° Southwest 437 503 22,000  Level Minneapolis Center
Wed 11:46:57 AM 44.1997 -87.7414 200° South 434 499 22,000  Level Minneapolis Center
Wed 11:47:35 AM 44.1236 -87.7800 200° South 437 503 22,000  Level Chicago Center
Wed 11:48:36 AM 44.0094 -87.8389 200° South 437 503 22,000 -429 Level Chicago Center
Wed 11:49:13 AM 43.9317 -87.8750 198° South 436 502 21,300 -2,667 Descending Minneapolis Center
Wed 11:50:15 AM 43.8233 -87.9281 199° South 418 481 17,600 -2,952 Descending Minneapolis Center
Wed 11:51:17 AM 43.7192 -87.9800 200° South 402 463 15,200 -1,742 Descending Minneapolis Center
Wed 11:52:19 AM 43.5986 -88.0392 200° South 392 451 14,000 -864 Descending Minneapolis Center
Wed 11:53:22 AM 43.4961 -88.0892 199° South 388 447 13,400 -532 Descending Minneapolis Center
Wed 11:54:23 AM 43.4083 -88.1158 192° South 387 445 12,900 -290 Descending Minneapolis Center
Wed 11:55:26 AM 43.2822 -88.1108 178° South 385 443 12,800 -823 Descending Minneapolis Center
Wed 11:56:27 AM 43.1961 -88.1036 177° South 373 429 11,200 -1,175 Descending Minneapolis Center
Wed 11:57:03 AM 43.1167 -88.1000 178° South 370 426 10,900 -212 Descending KMKE
Wed 11:57:52 AM 43.0256 -88.1025 181° South 370 426 10,900  Level Chicago Center
Wed 11:58:54 AM 42.9264 -88.1458 198° South 372 428 10,900 -97 Level Chicago Center
Wed 11:59:56 AM 42.8381 -88.1864 199° South 340 391 10,700 -823 Descending Chicago Center
Wed 12:00:58 PM 42.7625 -88.2181 197° South 288 331 9,200 -1,306 Descending Chicago Center
Wed 12:02:00 PM 42.6922 -88.2258 185° South 261 300 8,000 -532 Descending Chicago Center
Wed 12:03:02 PM 42.6178 -88.2217 178° South 267 307 8,100  Climbing Chicago Center
Wed 12:04:04 PM 42.5414 -88.2169 177° South 273 314 8,000 -48 Descending Chicago Center
Wed 12:05:06 PM 42.4522 -88.2136 178° South 274 315 8,000 -484 Level Chicago Center
Wed 12:06:08 PM 42.3794 -88.2119 179° South 265 305 7,000 -488 Descending Chicago Center
Wed 12:07:09 PM 42.3061 -88.2089 178° South 263 303 7,000  Level Chicago Center
Wed 12:08:11 PM 42.2431 -88.2092 180° South 232 267 7,000 -435 Level Chicago Center
Wed 12:09:13 PM 42.1975 -88.1692 147° Southeast 200 230 6,100 -960 Descending Chicago Center
Wed 12:10:16 PM 42.1550 -88.1206 140° Southeast 199 229 5,000 -906 Descending Chicago Center
Wed 12:10:59 PM 42.1167 -88.0833 144° Southeast 165 190 4,500 -857 Descending Chicago TRACON
Wed 12:11:54 PM 42.1000 -88.0500 124° Southeast 157 181 3,600 -982 Descending Chicago TRACON

Login

Don't have an account? Register now (free) for customized features, flight alerts, and more!